Time;durP1;ratioP1;P1;durP2;ratioP2;P2;SDS_P1;SDS_P2;PMS_P1;PMS_P2;Temp;Humidity;BMP_temperature;BMP_pressure;BME280_temperature;BME280_humidity;BME280_pressure;Samples;Min_cycle;Max_cycle;Signal;HPM_P1;HPM_P2
2021/12/28 00:02:09;;;;;;;82.10;32.80;;;-8.50;99.90;;;;;;10511073;28;20201;-80
2021/12/28 00:07:31;;;;;;;83.37;32.63;;;-8.60;99.90;;;;;;10510490;28;20418;-80
2021/12/28 00:12:54;;;;;;;82.40;31.97;;;-8.60;99.90;;;;;;10472519;28;20227;-82
2021/12/28 00:18:18;;;;;;;78.33;31.37;;;-8.70;99.90;;;;;;10469338;28;20188;-84
2021/12/28 00:23:40;;;;;;;77.07;30.40;;;-8.70;99.90;;;;;;10513010;28;20277;-85
2021/12/28 00:29:02;;;;;;;67.93;29.50;;;-8.70;99.90;;;;;;10468587;28;20203;-79
2021/12/28 00:34:24;;;;;;;74.57;28.53;;;-8.60;99.90;;;;;;10454476;28;20234;-83
2021/12/28 00:39:46;;;;;;;71.43;28.77;;;-8.70;99.90;;;;;;10488470;28;20192;-82
2021/12/28 00:45:10;;;;;;;69.20;27.97;;;-8.70;99.90;;;;;;10509419;28;20213;-80
2021/12/28 00:50:32;;;;;;;74.87;29.20;;;-8.70;99.90;;;;;;10523876;28;20261;-84
2021/12/28 00:55:54;;;;;;;80.97;29.83;;;-8.70;99.90;;;;;;10508894;28;20256;-79
2021/12/28 01:01:16;;;;;;;81.87;29.43;;;-8.70;99.90;;;;;;10522786;28;20236;-82
2021/12/28 01:06:38;;;;;;;80.77;29.80;;;-8.70;99.90;;;;;;10509127;28;20200;-84
2021/12/28 01:12:04;;;;;;;72.37;28.73;;;-8.80;99.90;;;;;;10521690;28;20423;-85
2021/12/28 01:17:26;;;;;;;76.20;28.10;;;-8.90;99.90;;;;;;10522288;28;20221;-84
2021/12/28 01:22:49;;;;;;;73.70;28.63;;;-8.80;99.90;;;;;;10508329;28;20203;-85
2021/12/28 01:28:11;;;;;;;68.23;26.53;;;-8.90;99.90;;;;;;10488674;28;20240;-84
2021/12/28 01:33:33;;;;;;;71.20;26.63;;;-8.80;99.90;;;;;;10492900;28;20240;-80
2021/12/28 01:38:55;;;;;;;72.60;25.93;;;-8.70;99.90;;;;;;10494332;28;20264;-83
2021/12/28 01:44:20;;;;;;;63.20;23.87;;;-8.60;99.90;;;;;;10507166;28;20218;-82
2021/12/28 01:49:43;;;;;;;58.63;22.97;;;-8.40;99.90;;;;;;10506517;28;20571;-83
2021/12/28 01:55:05;;;;;;;65.77;23.40;;;-8.30;99.90;;;;;;10506540;28;20200;-83
2021/12/28 02:00:28;;;;;;;56.30;21.90;;;-8.30;99.90;;;;;;10520573;28;20220;-84
2021/12/28 02:05:52;;;;;;;59.60;21.60;;;-8.30;99.90;;;;;;10505938;28;20489;-82
2021/12/28 02:11:15;;;;;;;59.53;22.73;;;-8.30;99.90;;;;;;10492079;28;20260;-80
2021/12/28 02:16:39;;;;;;;59.10;21.93;;;-8.20;99.90;;;;;;10464908;28;20204;-84
2021/12/28 02:22:01;;;;;;;53.40;21.77;;;-8.10;99.90;;;;;;10478729;28;20204;-82
2021/12/28 02:27:27;;;;;;;62.33;23.73;;;-8.00;99.90;;;;;;10510941;28;20237;-80
2021/12/28 02:32:50;;;;;;;51.90;21.30;;;-8.00;99.90;;;;;;10519570;28;20231;-83
2021/12/28 02:38:13;;;;;;;57.23;21.80;;;-7.90;92.10;;;;;;10519714;28;20191;-84
2021/12/28 02:43:36;;;;;;;52.43;21.67;;;-7.90;92.00;;;;;;10519028;28;20274;-80
2021/12/28 02:48:58;;;;;;;49.20;20.53;;;-7.70;36.30;;;;;;10504690;28;20462;-79
2021/12/28 02:54:20;;;;;;;53.53;19.80;;;-7.70;58.50;;;;;;10519754;28;20222;-82
2021/12/28 02:59:49;;;;;;;45.73;19.77;;;-7.70;38.80;;;;;;10504433;28;20203;-83
2021/12/28 03:05:12;;;;;;;48.27;20.63;;;-7.70;71.00;;;;;;10518883;28;20194;-80
2021/12/28 03:10:36;;;;;;;54.67;22.10;;;-7.70;90.50;;;;;;10490829;28;20218;-82
2021/12/28 03:15:57;;;;;;;47.63;19.77;;;-7.70;94.20;;;;;;10489713;28;20202;-77
2021/12/28 03:21:27;;;;;;;53.33;20.33;;;-7.60;99.50;;;;;;10543660;28;20274;-80
2021/12/28 03:26:49;;;;;;;60.83;21.23;;;-7.40;99.90;;;;;;10526979;28;20271;-79
2021/12/28 03:32:11;;;;;;;52.80;21.87;;;-7.60;99.90;;;;;;10476055;28;20227;-82
2021/12/28 03:37:34;;;;;;;47.63;21.10;;;-7.50;36.90;;;;;;10491724;28;20187;-81
2021/12/28 03:42:56;;;;;;;50.13;20.07;;;-7.40;64.40;;;;;;10525591;28;20234;-78
2021/12/28 03:48:19;;;;;;;53.30;21.30;;;-7.40;91.50;;;;;;10526450;28;20250;-80
2021/12/28 03:53:41;;;;;;;54.30;22.63;;;-7.30;98.50;;;;;;10525171;28;20269;-81
2021/12/28 03:59:03;;;;;;;46.27;20.63;;;-7.40;99.90;;;;;;10511273;28;20418;-78
2021/12/28 04:04:25;;;;;;;49.60;21.10;;;-7.40;99.90;;;;;;10524851;28;20198;-81
2021/12/28 04:15:14;;;;;;;52.17;21.03;;;-7.40;99.90;;;;;;10482980;28;20210;-76
2021/12/28 04:20:37;;;;;;;52.60;21.87;;;-7.30;99.90;;;;;;10482524;28;20198;-77
2021/12/28 04:25:59;;;;;;;56.47;22.47;;;-7.30;99.90;;;;;;10509308;28;20209;-80
2021/12/28 04:31:21;;;;;;;54.30;22.67;;;-7.40;99.90;;;;;;10523794;28;20222;-77
2021/12/28 04:36:43;;;;;;;47.20;21.50;;;-7.30;99.30;;;;;;10508973;28;20224;-77
2021/12/28 04:42:06;;;;;;;54.40;22.47;;;-7.20;98.70;;;;;;10509655;28;20195;-77
2021/12/28 04:47:28;;;;;;;58.03;22.97;;;-7.00;99.90;;;;;;10508987;28;20235;-77
2021/12/28 04:52:52;;;;;;;48.63;22.93;;;-7.00;80.10;;;;;;10508977;28;20223;-77
2021/12/28 04:58:15;;;;;;;48.70;21.47;;;-6.90;97.50;;;;;;10507955;28;20233;-76
2021/12/28 05:03:37;;;;;;;54.27;22.57;;;-6.90;98.90;;;;;;10522657;28;20224;-76
2021/12/28 05:08:59;;;;;;;56.13;24.30;;;-6.90;99.60;;;;;;10507726;28;20511;-82
2021/12/28 05:14:21;;;;;;;70.03;33.90;;;-6.90;90.10;;;;;;10507758;28;20305;-76
2021/12/28 05:19:43;;;;;;;112.90;50.93;;;-7.00;99.90;;;;;;10538275;28;20194;-78
2021/12/28 05:25:07;;;;;;;110.00;56.17;;;-6.90;99.90;;;;;;10507127;28;20228;-77
2021/12/28 05:30:29;;;;;;;294.83;167.73;;;-6.90;99.90;;;;;;10506740;28;20207;-77
2021/12/28 05:35:51;;;;;;;96.63;55.33;;;-6.90;99.90;;;;;;10538423;28;20199;-77
2021/12/28 05:41:13;;;;;;;106.20;47.90;;;-6.90;99.90;;;;;;10506679;28;20419;-77
2021/12/28 05:46:36;;;;;;;137.87;67.43;;;-6.80;99.90;;;;;;10523290;28;20201;-77
2021/12/28 05:51:58;;;;;;;136.93;60.67;;;-6.80;99.90;;;;;;10521223;28;20267;-76
2021/12/28 05:57:21;;;;;;;240.67;105.10;;;-6.90;99.90;;;;;;10520386;28;20190;-78
2021/12/28 06:02:45;;;;;;;330.90;201.03;;;-7.00;99.90;;;;;;10470540;28;20242;-76
2021/12/28 06:08:06;;;;;;;97.80;59.77;;;-6.90;99.90;;;;;;10479731;28;20245;-77
2021/12/28 06:13:34;;;;;;;75.87;38.57;;;-7.00;99.90;;;;;;10464120;28;20421;-78
2021/12/28 06:18:56;;;;;;;64.87;28.57;;;-6.90;99.90;;;;;;10494302;28;20230;-79
2021/12/28 06:24:18;;;;;;;61.80;28.57;;;-7.00;99.90;;;;;;10491254;28;20512;-79
2021/12/28 06:29:40;;;;;;;149.47;65.93;;;-6.90;99.90;;;;;;10535515;28;20240;-79
2021/12/28 06:35:03;;;;;;;104.87;57.47;;;-6.80;99.90;;;;;;10504724;28;20299;-77
2021/12/28 06:40:25;;;;;;;72.67;36.67;;;-6.80;99.90;;;;;;10518926;28;20210;-83
2021/12/28 06:45:47;;;;;;;70.00;30.43;;;-6.70;99.90;;;;;;10518912;28;20198;-77
2021/12/28 06:51:11;;;;;;;61.93;28.73;;;-6.90;99.90;;;;;;10518396;28;20288;-82
2021/12/28 06:56:33;;;;;;;70.20;30.07;;;-6.80;99.90;;;;;;10490745;28;20203;-77
2021/12/28 07:01:58;;;;;;;67.03;31.27;;;-6.80;99.90;;;;;;10476426;28;20390;-79
2021/12/28 07:07:20;;;;;;;60.50;29.03;;;-6.90;99.90;;;;;;10476738;28;20198;-77
2021/12/28 07:12:44;;;;;;;73.17;33.40;;;-6.90;99.90;;;;;;10462687;28;20227;-79
2021/12/28 07:18:06;;;;;;;66.40;32.97;;;-6.80;99.90;;;;;;10461868;28;20222;-78
2021/12/28 07:23:29;;;;;;;70.80;33.70;;;-6.80;99.90;;;;;;10476450;28;20253;-78
2021/12/28 07:28:51;;;;;;;71.70;31.90;;;-6.70;99.90;;;;;;10499627;28;20202;-78
2021/12/28 07:34:15;;;;;;;63.57;29.73;;;-6.60;99.90;;;;;;10504037;28;20436;-77
2021/12/28 07:39:37;;;;;;;72.60;32.20;;;-6.70;99.90;;;;;;10518019;28;20233;-79
2021/12/28 07:44:59;;;;;;;66.53;30.73;;;-6.60;99.90;;;;;;10503457;28;20363;-80
2021/12/28 07:50:22;;;;;;;69.70;31.13;;;-6.50;99.90;;;;;;10503445;28;20231;-78
2021/12/28 07:55:43;;;;;;;73.83;30.83;;;-6.50;99.90;;;;;;10517202;28;20245;-81
2021/12/28 08:01:05;;;;;;;66.17;29.70;;;-6.40;99.90;;;;;;10517197;28;20195;-78
2021/12/28 08:06:30;;;;;;;64.80;28.77;;;-6.40;99.90;;;;;;10492126;28;20239;-79
2021/12/28 08:11:53;;;;;;;72.00;30.60;;;-6.40;99.90;;;;;;10473872;28;20285;-80
2021/12/28 08:17:15;;;;;;;67.23;28.97;;;-6.50;99.90;;;;;;10484325;28;20242;-78
2021/12/28 08:22:38;;;;;;;65.50;29.47;;;-6.30;99.90;;;;;;10477051;28;20235;-77
2021/12/28 08:28:04;;;;;;;72.93;30.63;;;-6.30;99.90;;;;;;10517355;28;20253;-79
2021/12/28 08:33:28;;;;;;;74.03;32.10;;;-6.40;99.90;;;;;;10504069;28;20234;-77
2021/12/28 08:38:50;;;;;;;75.57;32.87;;;-6.30;99.90;;;;;;10518871;28;20203;-77
2021/12/28 08:44:12;;;;;;;80.97;32.00;;;-6.20;99.90;;;;;;10503727;28;20195;-78
2021/12/28 08:49:34;;;;;;;71.60;32.47;;;-6.20;99.90;;;;;;10503661;28;20240;-78
2021/12/28 08:54:57;;;;;;;73.87;31.97;;;-6.00;99.90;;;;;;10489437;28;20219;-77
2021/12/28 09:00:23;;;;;;;83.13;33.30;;;-5.80;99.90;;;;;;10516506;28;20223;-77
2021/12/28 09:05:48;;;;;;;73.43;30.77;;;-5.90;99.90;;;;;;10517217;28;20520;-78
2021/12/28 09:11:10;;;;;;;74.43;32.03;;;-5.90;99.90;;;;;;10464686;28;20410;-77
2021/12/28 09:16:36;;;;;;;84.67;40.03;;;-5.90;99.90;;;;;;10475827;28;20203;-77
2021/12/28 09:21:59;;;;;;;89.47;36.40;;;-5.70;99.90;;;;;;10474900;28;20192;-78
2021/12/28 09:27:21;;;;;;;76.60;32.97;;;-5.60;99.90;;;;;;10477805;28;20207;-78
2021/12/28 09:32:44;;;;;;;73.07;33.47;;;-5.60;99.90;;;;;;10474227;28;20426;-80
2021/12/28 09:38:07;;;;;;;98.50;40.87;;;-5.60;99.90;;;;;;10459086;28;20211;-78
2021/12/28 09:43:29;;;;;;;93.50;38.53;;;-5.60;99.90;;;;;;10474336;28;20260;-81
2021/12/28 09:48:51;;;;;;;83.07;36.63;;;-5.60;99.90;;;;;;10459966;28;20321;-84
2021/12/28 09:54:14;;;;;;;81.03;34.17;;;-5.60;99.90;;;;;;10503337;28;20214;-83
2021/12/28 09:59:36;;;;;;;94.27;38.27;;;-5.50;99.90;;;;;;10493593;28;20211;-78
2021/12/28 10:05:06;;;;;;;78.90;36.93;;;-5.40;99.90;;;;;;10515306;28;20211;-84
2021/12/28 10:10:43;;;;;;;90.53;37.90;;;-5.40;99.90;;;;;;10484090;28;20270;-82
2021/12/28 10:16:05;;;;;;;82.73;37.70;;;-5.40;99.90;;;;;;10459029;28;20289;-78
2021/12/28 10:21:27;;;;;;;88.77;38.53;;;-5.40;99.90;;;;;;10472897;28;20265;-86
2021/12/28 10:27:09;;;;;;;82.17;37.40;;;-5.30;99.90;;;;;;10445436;28;20227;-79
2021/12/28 10:32:33;;;;;;;90.40;38.20;;;-5.30;99.90;;;;;;10458662;28;20236;-79
2021/12/28 10:38:04;;;;;;;85.20;37.93;;;-5.20;99.90;;;;;;10482928;28;20207;-81
2021/12/28 10:43:28;;;;;;;96.00;46.50;;;-5.00;99.90;;;;;;10513592;28;20203;-79
2021/12/28 10:48:54;;;;;;;79.03;39.03;;;-5.10;99.90;;;;;;10500647;28;20273;-87
2021/12/28 10:54:17;;;;;;;91.10;39.73;;;-4.90;99.90;;;;;;10503477;28;20224;-80
2021/12/28 10:59:38;;;;;;;135.73;39.20;;;-4.80;99.90;;;;;;10475137;28;20212;-81
2021/12/28 11:05:00;;;;;;;118.33;51.33;;;-4.90;99.90;;;;;;10491705;28;20200;-80
2021/12/28 11:10:28;;;;;;;89.23;42.80;;;-4.90;99.90;;;;;;10474557;28;20239;-82
2021/12/28 11:15:51;;;;;;;86.80;38.40;;;-4.80;99.90;;;;;;10479194;28;20262;-79
2021/12/28 11:21:21;;;;;;;85.00;37.57;;;-4.80;99.90;;;;;;10499023;28;20214;-81
2021/12/28 11:26:48;;;;;;;95.63;42.77;;;-4.70;99.90;;;;;;10506727;28;20295;-82
2021/12/28 11:32:17;;;;;;;96.03;42.87;;;-4.70;99.90;;;;;;10461502;28;20571;-82
2021/12/28 11:37:39;;;;;;;74.00;35.17;;;-4.80;99.90;;;;;;10476333;28;20188;-80
2021/12/28 11:43:02;;;;;;;82.77;37.10;;;-4.70;99.90;;;;;;10478231;28;20230;-79
2021/12/28 11:48:24;;;;;;;110.63;45.23;;;-4.60;99.90;;;;;;10463852;28;20251;-78
2021/12/28 11:53:47;;;;;;;76.20;38.70;;;-4.70;99.90;;;;;;10478617;28;20229;-79
2021/12/28 11:59:10;;;;;;;126.63;57.60;;;-4.60;99.90;;;;;;10462425;28;20736;-79
2021/12/28 12:04:32;;;;;;;79.03;38.30;;;-4.60;99.90;;;;;;10526228;28;20262;-79
2021/12/28 12:09:57;;;;;;;80.53;36.13;;;-4.60;99.90;;;;;;10477062;28;20206;-82
2021/12/28 12:15:25;;;;;;;77.03;37.97;;;-4.60;99.90;;;;;;10478060;28;20303;-80
2021/12/28 12:20:58;;;;;;;75.37;36.10;;;-4.60;99.90;;;;;;10463301;28;20235;-82
2021/12/28 12:26:33;;;;;;;84.10;37.17;;;-4.40;99.90;;;;;;10463010;28;20225;-81
2021/12/28 12:31:55;;;;;;;78.73;36.43;;;-4.30;99.90;;;;;;10500411;28;20395;-79
2021/12/28 12:37:21;;;;;;;75.43;36.90;;;-4.30;99.90;;;;;;10520776;28;20211;-81
2021/12/28 12:42:43;;;;;;;73.93;35.70;;;-4.20;99.90;;;;;;10490410;28;20192;-82
2021/12/28 12:48:05;;;;;;;86.97;38.63;;;-4.20;99.90;;;;;;10518701;28;20234;-83
2021/12/28 12:53:59;;;;;;;78.77;37.53;;;-4.20;99.90;;;;;;10517885;28;20660;-81
2021/12/28 12:59:48;;;;;;;86.40;38.40;;;-4.20;99.90;;;;;;10502882;28;20242;-79
2021/12/28 13:05:16;;;;;;;86.93;40.80;;;-4.30;99.90;;;;;;10489577;28;20217;-86
2021/12/28 13:10:39;;;;;;;84.17;40.03;;;-4.30;99.90;;;;;;10496880;28;20219;-79
2021/12/28 13:16:08;;;;;;;81.47;38.80;;;-4.40;99.90;;;;;;10533895;28;20221;-80
2021/12/28 13:22:01;;;;;;;78.67;37.73;;;-4.40;99.90;;;;;;10532702;28;20196;-80
2021/12/28 13:27:24;;;;;;;80.60;39.20;;;-4.30;99.90;;;;;;10501493;28;20596;-80
2021/12/28 13:32:46;;;;;;;78.70;40.27;;;-4.30;99.90;;;;;;10516158;28;20480;-80
2021/12/28 13:38:13;;;;;;;84.87;42.47;;;-4.20;99.90;;;;;;10460675;28;20207;-80
2021/12/28 13:43:36;;;;;;;80.97;37.80;;;-4.10;99.90;;;;;;10460140;28;20206;-82
2021/12/28 13:49:01;;;;;;;75.97;37.13;;;-4.20;99.90;;;;;;10459402;28;20235;-82
2021/12/28 13:54:23;;;;;;;72.30;34.23;;;-4.20;99.90;;;;;;10492346;28;20235;-80
2021/12/28 13:59:45;;;;;;;72.27;36.90;;;-4.20;99.90;;;;;;10515448;28;20192;-81
2021/12/28 14:05:09;;;;;;;75.00;36.80;;;-4.20;99.90;;;;;;10476823;28;20195;-84
2021/12/28 14:10:34;;;;;;;82.07;37.80;;;-4.20;99.90;;;;;;10453727;28;20590;-80
2021/12/28 14:16:09;;;;;;;75.63;37.80;;;-4.20;99.90;;;;;;10472770;28;20248;-82
2021/12/28 14:21:44;;;;;;;81.70;38.23;;;-4.20;99.90;;;;;;10481883;28;20226;-81
2021/12/28 14:27:06;;;;;;;79.10;39.03;;;-4.10;99.90;;;;;;10500220;28;20499;-80
2021/12/28 14:32:56;;;;;;;80.50;39.33;;;-4.10;99.90;;;;;;10499781;28;20251;-78
2021/12/28 14:38:17;;;;;;;83.37;40.20;;;-4.10;99.90;;;;;;10514613;28;20193;-81
2021/12/28 14:43:40;;;;;;;86.57;40.37;;;-4.10;99.90;;;;;;10499975;28;20264;-82
2021/12/28 14:49:14;;;;;;;76.23;37.33;;;-4.10;99.90;;;;;;10513511;28;20243;-82
2021/12/28 14:54:37;;;;;;;104.67;43.60;;;-4.10;99.90;;;;;;10488000;28;20230;-78
2021/12/28 15:00:09;;;;;;;81.73;40.13;;;-4.00;99.90;;;;;;10530937;28;20222;-82
2021/12/28 15:05:36;;;;;;;90.77;41.47;;;-4.00;99.90;;;;;;10485488;28;20282;-78
2021/12/28 15:10:59;;;;;;;85.77;40.63;;;-4.00;99.90;;;;;;10464315;28;20413;-77
2021/12/28 15:16:21;;;;;;;88.93;43.87;;;-4.00;99.90;;;;;;10469970;28;20212;-82
2021/12/28 15:21:44;;;;;;;85.57;41.60;;;-4.00;99.90;;;;;;10498860;28;20193;-81
2021/12/28 15:27:06;;;;;;;93.37;45.37;;;-4.00;99.90;;;;;;10524445;28;20205;-83
2021/12/28 15:32:28;;;;;;;82.67;41.43;;;-4.00;99.90;;;;;;10506445;28;20311;-80
2021/12/28 15:37:52;;;;;;;90.30;43.60;;;-4.00;99.90;;;;;;10506650;28;20204;-79
2021/12/28 15:43:14;;;;;;;99.33;46.00;;;-4.00;99.90;;;;;;10506860;28;20232;-83
2021/12/28 15:48:40;;;;;;;92.50;44.37;;;-3.90;99.90;;;;;;10520306;28;20220;-81
2021/12/28 15:54:02;;;;;;;86.37;42.40;;;-3.90;99.90;;;;;;10472409;28;20229;-79
2021/12/28 15:59:24;;;;;;;100.00;45.67;;;-3.90;99.90;;;;;;10465306;28;20208;-81
2021/12/28 16:04:46;;;;;;;105.03;46.30;;;-3.90;99.90;;;;;;10489519;28;20249;-80
2021/12/28 16:10:09;;;;;;;94.33;45.63;;;-4.00;99.90;;;;;;10501414;28;20416;-79
2021/12/28 16:15:31;;;;;;;100.10;44.40;;;-3.90;99.90;;;;;;10521092;28;20226;-79
2021/12/28 16:20:54;;;;;;;101.33;48.40;;;-3.90;99.90;;;;;;10509642;28;20235;-77
2021/12/28 16:26:17;;;;;;;97.20;43.77;;;-4.00;99.90;;;;;;10523706;28;20196;-84
2021/12/28 16:31:39;;;;;;;88.97;44.70;;;-3.90;99.90;;;;;;10539511;28;20240;-81
2021/12/28 16:37:01;;;;;;;88.67;41.67;;;-3.90;99.90;;;;;;10509340;28;20221;-80
2021/12/28 16:42:23;;;;;;;105.80;48.90;;;-4.00;99.90;;;;;;10494325;28;20196;-82
2021/12/28 16:47:45;;;;;;;90.97;44.17;;;-3.90;99.90;;;;;;10505924;28;20556;-81
2021/12/28 16:53:09;;;;;;;107.67;46.13;;;-3.90;99.90;;;;;;10478036;28;20252;-83
2021/12/28 16:58:30;;;;;;;91.40;44.13;;;-3.90;99.90;;;;;;10491772;28;20540;-81
2021/12/28 17:03:52;;;;;;;93.67;44.23;;;-4.00;99.90;;;;;;10498324;28;20222;-81
2021/12/28 17:09:14;;;;;;;87.97;44.07;;;-3.90;99.90;;;;;;10488934;28;20204;-80
2021/12/28 17:14:46;;;;;;;87.97;44.73;;;-3.90;99.90;;;;;;10492536;28;20230;-84
2021/12/28 17:20:11;;;;;;;82.77;41.27;;;-3.90;99.90;;;;;;10495649;28;20228;-84
2021/12/28 17:25:33;;;;;;;84.40;42.27;;;-3.80;99.90;;;;;;10506904;28;20533;-89
2021/12/28 17:30:55;;;;;;;91.97;43.13;;;-3.90;99.90;;;;;;10507308;28;20199;-85
2021/12/28 17:36:18;;;;;;;91.50;41.87;;;-3.80;99.90;;;;;;10493680;28;20226;-83
2021/12/28 17:41:42;;;;;;;86.80;42.73;;;-3.80;99.90;;;;;;10503262;28;20191;-82
2021/12/28 17:47:05;;;;;;;84.17;42.20;;;-3.80;99.90;;;;;;10490852;28;20203;-83
2021/12/28 17:52:29;;;;;;;81.17;41.17;;;-3.80;99.90;;;;;;10465358;28;20307;-84
2021/12/28 17:57:51;;;;;;;81.00;37.60;;;-3.70;99.90;;;;;;10457272;28;20527;-84
2021/12/28 18:03:22;;;;;;;74.77;37.27;;;-3.70;99.90;;;;;;10479512;28;20235;-84
2021/12/28 18:08:45;;;;;;;73.50;38.27;;;-3.70;99.90;;;;;;10486868;28;20205;-85
2021/12/28 18:14:07;;;;;;;79.03;39.07;;;-3.60;99.90;;;;;;10504661;28;20221;-85
2021/12/28 18:19:30;;;;;;;70.53;37.80;;;-3.60;99.90;;;;;;10504955;28;20191;-84
2021/12/28 18:24:52;;;;;;;78.73;37.53;;;-3.60;99.90;;;;;;10520537;28;20392;-85
2021/12/28 18:30:15;;;;;;;61.03;35.13;;;-3.70;99.90;;;;;;10506080;28;20235;-84
2021/12/28 18:35:39;;;;;;;67.47;35.03;;;-3.60;99.90;;;;;;10505635;28;20233;-85
2021/12/28 18:41:05;;;;;;;70.10;34.80;;;-3.70;99.90;;;;;;10506027;28;20266;-84
2021/12/28 18:46:27;;;;;;;59.50;31.00;;;-3.60;99.90;;;;;;10505312;28;20545;-86
2021/12/28 18:51:52;;;;;;;56.37;30.63;;;-3.50;99.90;;;;;;10463671;28;20444;-84
2021/12/28 18:57:14;;;;;;;64.77;33.43;;;-3.50;99.90;;;;;;10480850;28;20364;-85
2021/12/28 19:02:36;;;;;;;65.83;32.80;;;-3.50;99.90;;;;;;10478509;28;20194;-85
2021/12/28 19:07:58;;;;;;;62.73;32.77;;;-3.40;99.90;;;;;;10461458;28;20203;-84
2021/12/28 19:13:20;;;;;;;58.93;31.40;;;-3.40;99.90;;;;;;10505455;28;20302;-84
2021/12/28 19:18:44;;;;;;;60.50;31.67;;;-3.40;99.90;;;;;;10481323;28;20240;-87
2021/12/28 19:24:07;;;;;;;57.90;31.30;;;-3.40;99.90;;;;;;10490896;28;20190;-84
2021/12/28 19:29:29;;;;;;;52.97;28.90;;;-3.40;99.90;;;;;;10491098;28;20195;-84
2021/12/28 19:34:51;;;;;;;53.07;28.70;;;-3.30;99.90;;;;;;10504587;28;20307;-84
2021/12/28 19:40:18;;;;;;;49.07;28.17;;;-3.30;99.90;;;;;;10504962;28;20229;-85
2021/12/28 19:45:42;;;;;;;56.87;30.63;;;-3.40;99.90;;;;;;10504737;28;20240;-84
2021/12/28 19:51:05;;;;;;;44.57;26.50;;;-3.30;99.90;;;;;;10490253;28;20243;-85
2021/12/28 19:56:27;;;;;;;42.37;24.63;;;-3.40;99.90;;;;;;10504504;28;20318;-84
2021/12/28 20:01:49;;;;;;;47.30;27.27;;;-3.50;99.90;;;;;;10530331;28;20194;-86
2021/12/28 20:07:13;;;;;;;46.53;26.13;;;-3.30;99.90;;;;;;10540509;28;20222;-84
2021/12/28 20:12:35;;;;;;;48.23;27.03;;;-3.30;99.90;;;;;;10476845;28;20214;-84
2021/12/28 20:17:58;;;;;;;41.63;25.07;;;-3.40;99.90;;;;;;10502703;28;20266;-88
2021/12/28 20:23:19;;;;;;;47.70;24.63;;;-3.30;99.90;;;;;;10511464;28;20266;-85
2021/12/28 20:28:42;;;;;;;43.73;25.77;;;-3.30;99.90;;;;;;10524779;28;20215;-84
2021/12/28 20:34:04;;;;;;;50.93;26.37;;;-3.30;99.90;;;;;;10496720;28;20254;-86
2021/12/28 20:39:26;;;;;;;45.73;23.63;;;-3.20;99.90;;;;;;10510548;28;20379;-84
2021/12/28 20:44:49;;;;;;;44.90;23.13;;;-3.20;99.90;;;;;;10510161;28;20215;-84
2021/12/28 20:50:13;;;;;;;48.63;24.83;;;-3.10;99.90;;;;;;10509958;28;20242;-85
2021/12/28 20:55:35;;;;;;;43.87;24.70;;;-3.10;99.90;;;;;;10524306;28;20523;-85
2021/12/28 21:00:57;;;;;;;43.20;23.43;;;-3.20;99.90;;;;;;10508957;28;20285;-85
2021/12/28 21:06:23;;;;;;;47.83;24.97;;;-3.10;99.90;;;;;;10509120;28;20226;-86
2021/12/28 21:11:45;;;;;;;44.03;23.63;;;-3.10;99.90;;;;;;10462204;28;20275;-85
2021/12/28 21:17:07;;;;;;;52.07;26.63;;;-3.10;99.90;;;;;;10509578;28;20509;-86
2021/12/28 21:22:31;;;;;;;48.67;24.80;;;-3.00;99.90;;;;;;10494834;28;20187;-86
2021/12/28 21:27:54;;;;;;;44.00;23.47;;;-3.00;99.90;;;;;;10508378;28;20203;-86
2021/12/28 21:33:23;;;;;;;44.67;23.93;;;-3.00;99.90;;;;;;10522213;28;20291;-85
2021/12/28 21:38:46;;;;;;;41.90;24.13;;;-3.00;99.90;;;;;;10508151;28;20203;-85
2021/12/28 21:44:11;;;;;;;44.17;23.80;;;-3.00;99.90;;;;;;10507829;28;20190;-85
2021/12/28 21:49:33;;;;;;;41.23;23.70;;;-3.00;99.90;;;;;;10493402;28;20227;-85
2021/12/28 21:54:58;;;;;;;45.43;24.30;;;-3.00;99.90;;;;;;10521464;28;20227;-85
2021/12/28 22:00:28;;;;;;;50.70;24.97;;;-3.00;99.90;;;;;;10507031;28;20196;-85
2021/12/28 22:05:51;;;;;;;44.73;24.23;;;-3.00;99.90;;;;;;10523745;28;20227;-85
2021/12/28 22:11:13;;;;;;;45.13;24.03;;;-3.00;99.90;;;;;;10479028;28;20212;-85
2021/12/28 22:16:36;;;;;;;56.33;25.90;;;-2.90;99.90;;;;;;10490148;28;20250;-85
2021/12/28 22:21:58;;;;;;;49.70;24.70;;;-2.90;99.90;;;;;;10505723;28;20196;-85
2021/12/28 22:27:21;;;;;;;45.67;25.20;;;-2.90;99.90;;;;;;10520036;28;20202;-85
2021/12/28 22:32:43;;;;;;;45.53;24.00;;;-2.90;99.90;;;;;;10526641;28;20232;-85
2021/12/28 22:38:08;;;;;;;44.43;24.47;;;-2.90;99.90;;;;;;10521385;28;20368;-84
2021/12/28 22:43:31;;;;;;;45.60;24.77;;;-2.90;99.90;;;;;;10505494;28;20202;-85
2021/12/28 22:48:53;;;;;;;46.97;24.93;;;-2.90;99.90;;;;;;10492328;28;20222;-85
2021/12/28 22:54:17;;;;;;;48.10;25.17;;;-2.90;99.90;;;;;;10475614;28;20305;-85
2021/12/28 22:59:39;;;;;;;53.30;26.67;;;-2.90;99.90;;;;;;10505409;28;20249;-86
2021/12/28 23:05:01;;;;;;;51.60;25.47;;;-2.90;99.90;;;;;;10519404;28;20442;-85
2021/12/28 23:10:23;;;;;;;48.33;25.33;;;-2.90;99.90;;;;;;10498249;28;20195;-85
2021/12/28 23:15:45;;;;;;;46.23;25.60;;;-2.80;99.90;;;;;;10490601;28;20220;-86
2021/12/28 23:21:07;;;;;;;50.27;25.17;;;-2.80;99.90;;;;;;10505131;28;20447;-85
2021/12/28 23:26:29;;;;;;;45.47;26.00;;;-2.80;99.90;;;;;;10504738;28;20196;-85
2021/12/28 23:31:52;;;;;;;44.40;23.87;;;-2.80;99.90;;;;;;10506911;28;20196;-85
2021/12/28 23:37:14;;;;;;;44.20;24.27;;;-2.80;99.90;;;;;;10512829;28;20313;-85
2021/12/28 23:42:37;;;;;;;46.10;24.57;;;-2.80;99.90;;;;;;10512156;28;20492;-85
2021/12/28 23:47:59;;;;;;;45.07;24.80;;;-2.80;99.90;;;;;;10470429;28;20223;-85
2021/12/28 23:53:21;;;;;;;47.47;23.93;;;-2.70;99.90;;;;;;10484619;28;20538;-85
2021/12/28 23:58:43;;;;;;;44.83;24.67;;;-2.70;99.90;;;;;;10484287;28;20201;-85
